Terminal Aerodrome Forecast
Issued by NWS Chicago, IL

Home | Current Version | Previous Version | Graphics & Text | Print | Product List | Glossary On
Versions: 1 2 3 4 5 6 7 8 9 10 11 12 13 14 15 16 17 18 19 20 21 22 23 24 25 26 27 28
522
FTUS43 KLOT 212323
TAFRFD
TAF
KRFD 212323Z 2200/2224 35012KT P6SM FEW250
     FM220400 05012G20KT P6SM SCT016 BKN045
     FM220600 06012G18KT P6SM BKN017
     FM221000 07012KT P6SM FEW020
     FM222000 10009KT P6SM SCT150 BKN250=

USA.gov is the U.S. government's official web portal to all federal, state and local government web resources and services.